Terminal Aerodrome Forecast
Issued by NWS Houston/Galveston TX

Current Version | Previous Version | Text Only | Print | Product List | Glossary Off
Versions: 1 2 3 4 5 6 7 8 9 10 11 12 13 14 15 16 17 18 19 20 21 22 23 24 25 26 27 28 29 30 31

000
FTUS44 KHGX 310530
TAFHOU
TAF
KHOU 310530Z 3106/0106 18004KT P6SM SKC
     FM311200 VRB03KT P6SM FEW025
     FM311600 21006KT P6SM SCT040
     FM312000 16008KT P6SM VCTS SCT050CB BKN250 PROB30 3120/3122
      VRB10G20KT TSRA
     FM010100 17007KT P6SM SCT070 SCT250=

USA.gov is the U.S. government's official web portal to all federal, state and local government web resources and services.